ADDS TAF Board (Experimental) INFO Settings
IDs:

KMCI - Kansas City Intl, MO, US

Issued at 1727 UTC 31 Aug 2015
Updated at: 1756 UTC 31 Aug 2015
Time1753Z 31/18Z 31/19Z 31/20Z 31/21Z 31/22Z 31/23Z 01/00Z 01/01Z 01/02Z 01/03Z 01/04Z 01/05Z 01/06Z
Type OBS PRVL PRVL PRVL PRVL PRVL PRVL PRVL PRVL PRVL PRVL PRVL PRVL PRVL
VIS 10 >6 >6 >6 >6 >6 >6 >6 >6 >6 >6 >6 >6 >6
CIG -- -- -- -- -- -- -- -- -- -- -- -- -- --
Cover SCT SCT SCT SCT SCT SCT SCT SKC SKC SKC SKC SKC SKC SKC
FltCat VFR VFR VFR VFR VFR VFR VFR VFR VFR VFR VFR VFR VFR VFR
WX -- -- -- -- -- -- -- -- -- -- -- -- -- --
WDir 200 190 190 190 190 190 190 180 180 180 180 180 180 180
WSpd 7 8 8 8 8 8 8 7 7 7 7 7 7 7
WGst -- -- -- -- -- -- -- -- -- -- -- -- -- --
R01/19
XWnd 1 -0 -0 -0 -0 -0 -0 -2 -2 -2 -2 -2 -2 -2
HWnd -7 -8 -8 -8 -8 -8 -8 -7 -7 -7 -7 -7 -7 -7
R09/27
XWnd -7 -8 -8 -8 -8 -8 -8 -7 -7 -7 -7 -7 -7 -7
HWnd -2 -1 -1 -1 -1 -1 -1 1 1 1 1 1 1 1

NOTE: TEMPO conditions in [brackets]. Keep in mind TEMPO conditions might be better (lower impact) than prevailing conditions.

Raw TAF
KMCI 311727Z 3118/0118 19008KT P6SM SCT040
  FM010000 18007KT P6SM SKC


Raw METAR
KMCI 311753Z 20007KT 10SM SCT034 30/22 A2999 RMK AO2 SLP144 T03000217 10300 20200 58003
KMCI 311653Z 19007KT 9SM SCT040 29/22 A3000 RMK AO2 SLP147 T02940217
KMCI 311553Z 21009KT 8SM FEW040 28/22 A3000 RMK AO2 SLP149 T02780222
KMCI 311453Z 20006KT 6SM HZ CLR 26/22 A3000 RMK AO2 SLP148 T02610222 51009

METAR Board
Radar Display
Forecast Discussion

TAF Board Legend

Potential Impact
Threat None Slight Moderate High
Visibility (sm) ≥5.1 5.1>X≥3 3>X≥1 <1
Ceiling (100 ft) ≥30.1 30.1>X≥10 10>X≥5 <5
Wind Speed (kt) <10 10≤X<20 20≤X<30 ≥30
Wind Gust (kt) <15 15≤X<25 25≤X<35 ≥35
Weather No Wx Reported VCTS,-TS,-FZRA,SN TS,FZRA +TS,+FZRA,+SN